createdAt,value
2018-10-03T01:31:25.957Z,69.32
2018-10-03T01:31:26.530Z,69.13
2018-10-03T01:31:27.128Z,69.42
2018-10-03T01:31:27.730Z,69.89
2018-10-03T01:31:28.328Z,69.60
2018-10-03T01:31:28.927Z,69.89
2018-10-03T01:31:29.528Z,69.42
2018-10-03T01:31:30.129Z,69.89
2018-10-03T01:32:23.608Z,69.32
2018-10-03T01:32:24.181Z,69.60
2018-10-03T01:32:24.780Z,69.42
2018-10-03T01:32:25.382Z,69.60
2018-10-03T01:32:25.981Z,69.79
2018-10-03T01:32:26.580Z,69.60
2018-10-03T01:32:27.179Z,69.51
2018-10-03T01:32:27.782Z,69.32
2018-10-03T01:33:22.286Z,68.18
2018-10-03T01:33:22.857Z,67.89
2018-10-03T01:33:23.528Z,68.37
2018-10-03T01:33:24.056Z,68.27
2018-10-03T01:33:24.655Z,68.27
2018-10-03T01:33:25.255Z,68.18
2018-10-03T01:33:25.856Z,68.18
2018-10-03T01:33:26.459Z,68.08
2018-10-03T01:34:19.937Z,67.70
2018-10-03T01:34:20.512Z,68.18
2018-10-03T01:34:21.109Z,67.67
2018-10-03T01:34:21.718Z,68.27
2018-10-03T01:34:22.310Z,67.89
2018-10-03T01:34:22.909Z,68.08
2018-10-03T01:34:23.507Z,68.27
2018-10-03T01:34:24.108Z,68.18
2018-10-03T01:35:17.590Z,66.24
2018-10-03T01:35:18.164Z,66.05
2018-10-03T01:35:18.761Z,65.95
2018-10-03T01:35:19.362Z,66.18
2018-10-03T01:35:19.962Z,66.05
2018-10-03T01:35:20.564Z,66.08
2018-10-03T01:35:21.158Z,66.05
2018-10-03T01:35:21.763Z,66.05
2018-10-03T01:36:16.269Z,67.13
2018-10-03T01:36:16.840Z,67.13
2018-10-03T01:36:17.438Z,67.03
2018-10-03T01:36:18.035Z,67.13
2018-10-03T01:36:18.638Z,67.22
2018-10-03T01:36:19.236Z,66.85
2018-10-03T01:36:19.835Z,67.03
2018-10-03T01:36:20.435Z,67.03
2018-10-03T01:37:14.941Z,66.85
2018-10-03T01:37:15.513Z,67.03
2018-10-03T01:37:16.113Z,66.37
2018-10-03T01:37:16.714Z,66.27
2018-10-03T01:37:17.311Z,66.46
2018-10-03T01:37:17.911Z,66.56
2018-10-03T01:37:18.512Z,65.89
2018-10-03T01:37:19.113Z,66.27
2018-10-03T01:38:12.611Z,66.94
2018-10-03T01:38:13.200Z,67.22
2018-10-03T01:38:13.799Z,66.94
2018-10-03T01:38:14.368Z,66.94
2018-10-03T01:38:15.047Z,66.94
2018-10-03T01:38:15.592Z,66.75
2018-10-03T01:38:16.214Z,66.85
2018-10-03T01:38:16.817Z,66.85
2018-10-03T01:39:11.268Z,67.03
2018-10-03T01:39:11.841Z,66.94
2018-10-03T01:39:12.440Z,66.75
2018-10-03T01:39:13.039Z,66.94
2018-10-03T01:39:13.639Z,66.94
2018-10-03T01:39:14.240Z,66.94
2018-10-03T01:39:14.840Z,66.85
2018-10-03T01:39:15.439Z,66.94
2018-10-03T01:40:08.921Z,66.18
2018-10-03T01:40:09.497Z,67.03
2018-10-03T01:40:10.094Z,67.03
2018-10-03T01:40:10.693Z,66.94
2018-10-03T01:40:11.294Z,66.85
2018-10-03T01:40:11.892Z,66.75
2018-10-03T01:40:12.493Z,66.94
2018-10-03T01:40:13.094Z,66.56
2018-10-03T01:41:06.574Z,68.75
2018-10-03T01:41:07.145Z,68.94
2018-10-03T01:41:07.747Z,69.13
2018-10-03T01:41:08.345Z,69.04
2018-10-03T01:41:08.945Z,69.04
2018-10-03T01:41:09.553Z,69.23
2018-10-03T01:41:10.144Z,69.42
2018-10-03T01:41:10.745Z,69.32
2018-10-03T01:42:04.226Z,70.75
2018-10-03T01:42:04.799Z,70.47
2018-10-03T01:42:05.397Z,70.08
2018-10-03T01:42:05.997Z,69.89
2018-10-03T01:42:06.601Z,70.18
2018-10-03T01:42:07.201Z,69.79
2018-10-03T01:42:07.801Z,70.27
2018-10-03T01:42:08.397Z,70.47
2018-10-03T01:43:02.903Z,68.84
2018-10-03T01:43:03.472Z,68.84
2018-10-03T01:43:04.073Z,68.75
2018-10-03T01:43:04.671Z,68.65
2018-10-03T01:43:05.277Z,68.46
2018-10-03T01:43:05.870Z,68.46
2018-10-03T01:43:06.473Z,68.65
2018-10-03T01:43:07.071Z,68.37
2018-10-03T01:44:01.588Z,69.42
2018-10-03T01:44:02.148Z,69.42
2018-10-03T01:44:02.746Z,69.42
2018-10-03T01:44:03.345Z,69.51
2018-10-03T01:44:03.947Z,69.32
2018-10-03T01:44:04.547Z,69.32
2018-10-03T01:44:05.148Z,69.32
2018-10-03T01:44:05.746Z,69.32
2018-10-03T01:44:59.229Z,67.99
2018-10-03T01:44:59.800Z,68.27
2018-10-03T01:45:00.401Z,68.08
2018-10-03T01:45:00.999Z,67.70
2018-10-03T01:45:01.602Z,67.70
2018-10-03T01:45:02.205Z,67.89
2018-10-03T01:45:02.803Z,67.89
2018-10-03T01:45:03.399Z,67.80
2018-10-03T01:45:57.904Z,69.32
2018-10-03T01:45:58.483Z,69.32
2018-10-03T01:45:59.075Z,69.32
2018-10-03T01:45:59.680Z,69.32
2018-10-03T01:46:00.275Z,69.60
2018-10-03T01:46:00.874Z,69.60
2018-10-03T01:46:01.475Z,69.60
2018-10-03T01:46:02.074Z,69.60
2018-10-03T01:46:56.580Z,72.56
2018-10-03T01:46:57.152Z,72.37
2018-10-03T01:46:57.752Z,72.75
2018-10-03T01:46:58.351Z,72.46
2018-10-03T01:46:58.953Z,72.65
2018-10-03T01:46:59.556Z,72.46
2018-10-03T01:47:00.151Z,72.46
2018-10-03T01:47:00.753Z,72.56
2018-10-03T01:47:54.232Z,73.51
2018-10-03T01:47:54.804Z,73.61
2018-10-03T01:47:55.407Z,73.70
2018-10-03T01:47:56.003Z,73.51
2018-10-03T01:47:56.602Z,73.70
2018-10-03T01:47:57.203Z,73.61
2018-10-03T01:47:57.803Z,73.70
2018-10-03T01:47:58.403Z,73.61
2018-10-03T01:48:52.908Z,74.75
2018-10-03T01:48:53.481Z,75.13
2018-10-03T01:48:54.079Z,74.94
2018-10-03T01:48:54.677Z,74.84
2018-10-03T01:48:55.278Z,74.84
2018-10-03T01:48:55.883Z,74.94
2018-10-03T01:48:56.479Z,75.04
2018-10-03T01:48:57.078Z,74.98
2018-10-03T01:49:51.581Z,75.70
2018-10-03T01:49:52.155Z,75.70
2018-10-03T01:49:52.756Z,75.70
2018-10-03T01:49:53.355Z,75.79
2018-10-03T01:49:53.954Z,75.79
2018-10-03T01:49:54.553Z,75.79
2018-10-03T01:49:55.154Z,75.79
2018-10-03T01:49:55.752Z,75.79
2018-10-03T01:50:49.240Z,74.84
2018-10-03T01:50:49.807Z,74.75
2018-10-03T01:50:50.408Z,74.46
2018-10-03T01:50:51.010Z,74.46
2018-10-03T01:50:51.611Z,74.02
2018-10-03T01:50:52.209Z,74.08
2018-10-03T01:50:52.806Z,74.37
2018-10-03T01:50:53.406Z,74.12
2018-10-03T01:51:46.886Z,74.84
2018-10-03T01:51:47.459Z,74.65
2018-10-03T01:51:48.058Z,74.75
2018-10-03T01:51:48.658Z,74.84
2018-10-03T01:51:49.259Z,74.75
2018-10-03T01:51:49.862Z,74.84
2018-10-03T01:51:50.456Z,75.07
2018-10-03T01:51:51.056Z,75.23
2018-10-03T01:52:45.561Z,75.79
2018-10-03T01:52:46.135Z,75.70
2018-10-03T01:52:46.734Z,76.27
2018-10-03T01:52:47.335Z,76.65
2018-10-03T01:52:47.935Z,76.27
2018-10-03T01:52:48.538Z,76.18
2018-10-03T01:52:49.133Z,76.12
2018-10-03T01:52:49.733Z,76.27
2018-10-03T01:53:43.213Z,76.12
2018-10-03T01:53:43.787Z,76.37
2018-10-03T01:53:44.387Z,76.37
2018-10-03T01:53:44.986Z,76.18
2018-10-03T01:53:45.586Z,76.18
2018-10-03T01:53:46.191Z,76.18
2018-10-03T01:53:46.786Z,76.18
2018-10-03T01:53:47.385Z,76.37
2018-10-03T01:54:41.889Z,77.13
2018-10-03T01:54:42.461Z,77.03
2018-10-03T01:54:43.061Z,76.94
2018-10-03T01:54:43.661Z,76.84
2018-10-03T01:54:44.262Z,77.03
2018-10-03T01:54:44.869Z,76.98
2018-10-03T01:54:45.466Z,77.17
2018-10-03T01:54:46.060Z,76.84
2018-10-03T01:55:40.563Z,75.51
2018-10-03T01:55:41.137Z,75.23
2018-10-03T01:55:41.737Z,75.04
2018-10-03T01:55:42.342Z,74.94
2018-10-03T01:55:42.936Z,75.13
2018-10-03T01:55:43.540Z,75.13
2018-10-03T01:55:44.136Z,75.70
2018-10-03T01:55:44.736Z,75.79
2018-10-03T01:56:39.264Z,75.23
2018-10-03T01:56:39.813Z,75.04
2018-10-03T01:56:40.412Z,75.26
2018-10-03T01:56:41.012Z,75.23
2018-10-03T01:56:41.612Z,75.23
2018-10-03T01:56:42.217Z,75.70
2018-10-03T01:56:42.811Z,75.70
2018-10-03T01:56:43.414Z,75.89
2018-10-03T01:57:36.892Z,75.99
2018-10-03T01:57:37.465Z,75.79
2018-10-03T01:57:38.068Z,76.37
2018-10-03T01:57:38.665Z,76.27
2018-10-03T01:57:39.265Z,76.46
2018-10-03T01:57:39.867Z,76.08
2018-10-03T01:57:40.466Z,76.08
2018-10-03T01:57:41.068Z,76.27
2018-10-03T01:58:34.546Z,75.99
2018-10-03T01:58:35.116Z,75.89
2018-10-03T01:58:35.719Z,76.08
2018-10-03T01:58:36.317Z,76.21
2018-10-03T01:58:37.596Z,75.89
2018-10-03T01:58:38.101Z,75.99
2018-10-03T01:58:38.701Z,76.08
2018-10-03T01:59:33.220Z,75.60
2018-10-03T01:59:33.794Z,75.60
2018-10-03T01:59:34.393Z,75.79
2018-10-03T01:59:34.991Z,75.99
2018-10-03T01:59:35.592Z,75.79
2018-10-03T01:59:36.204Z,76.08
2018-10-03T01:59:36.790Z,75.70
2018-10-03T01:59:37.389Z,75.89
2018-10-03T02:00:30.872Z,75.70
2018-10-03T02:00:31.445Z,75.84
2018-10-03T02:00:32.043Z,75.74
2018-10-03T02:00:32.646Z,75.74
2018-10-03T02:00:33.244Z,75.84
2018-10-03T02:00:33.846Z,75.84
2018-10-03T02:00:34.443Z,75.93
2018-10-03T02:00:35.046Z,75.79
2018-10-03T02:01:29.547Z,77.36
2018-10-03T02:01:30.119Z,77.36
2018-10-03T02:01:30.721Z,77.45
2018-10-03T02:01:31.326Z,77.36
2018-10-03T02:01:31.918Z,77.55
2018-10-03T02:01:32.524Z,77.93
2018-10-03T02:01:33.119Z,77.64
2018-10-03T02:01:33.723Z,77.64
2018-10-03T02:02:37.338Z,76.40
2018-10-03T02:02:37.909Z,76.59
2018-10-03T02:02:38.509Z,76.40
2018-10-03T02:02:39.108Z,76.03
2018-10-03T02:02:39.708Z,76.31
2018-10-03T02:02:40.310Z,76.12
2018-10-03T02:02:40.908Z,76.12
2018-10-03T02:02:41.510Z,75.84
2018-10-03T02:03:34.998Z,76.98
2018-10-03T02:03:35.561Z,76.98
2018-10-03T02:03:36.161Z,77.07
2018-10-03T02:03:36.762Z,76.98
2018-10-03T02:03:37.359Z,76.88
2018-10-03T02:03:37.962Z,76.98
2018-10-03T02:03:38.561Z,76.88
2018-10-03T02:03:39.160Z,77.45
2018-10-03T02:04:32.641Z,80.50
2018-10-03T02:04:33.215Z,80.41
2018-10-03T02:04:33.813Z,80.79
2018-10-03T02:04:34.412Z,80.41
2018-10-03T02:04:35.013Z,80.41
2018-10-03T02:04:35.616Z,80.50
2018-10-03T02:04:36.212Z,80.41
2018-10-03T02:04:36.812Z,80.31
2018-10-03T02:05:31.315Z,81.84
2018-10-03T02:05:31.889Z,81.74
2018-10-03T02:05:32.511Z,81.84
2018-10-03T02:05:33.089Z,81.74
2018-10-03T02:05:33.687Z,81.84
2018-10-03T02:05:34.290Z,81.55
2018-10-03T02:05:34.889Z,81.84
2018-10-03T02:05:35.487Z,81.84
2018-10-03T02:06:29.992Z,82.31
2018-10-03T02:06:30.564Z,82.50
2018-10-03T02:06:31.165Z,82.50
2018-10-03T02:06:31.768Z,82.31
2018-10-03T02:06:32.365Z,82.41
2018-10-03T02:06:32.967Z,82.31
2018-10-03T02:06:33.563Z,82.50
2018-10-03T02:06:34.162Z,82.50
2018-10-03T02:07:27.643Z,84.03
2018-10-03T02:07:28.216Z,83.93
2018-10-03T02:07:28.815Z,84.12
2018-10-03T02:07:29.416Z,84.88
2018-10-03T02:07:30.016Z,84.41
2018-10-03T02:07:30.620Z,84.60
2018-10-03T02:07:31.213Z,84.60
2018-10-03T02:07:31.814Z,84.69
2018-10-03T02:08:25.302Z,84.16
2018-10-03T02:08:25.867Z,84.03
2018-10-03T02:08:26.471Z,84.22
2018-10-03T02:08:27.068Z,84.22
2018-10-03T02:08:27.668Z,84.12
2018-10-03T02:08:28.270Z,84.16
2018-10-03T02:08:28.867Z,84.12
2018-10-03T02:08:29.470Z,84.16
2018-10-03T02:09:22.947Z,85.21
2018-10-03T02:09:23.519Z,85.17
2018-10-03T02:09:24.122Z,85.36
2018-10-03T02:09:24.719Z,85.36
2018-10-03T02:09:25.335Z,85.17
2018-10-03T02:09:25.921Z,85.46
2018-10-03T02:09:26.519Z,85.41
2018-10-03T02:09:27.124Z,84.98
2018-10-03T02:10:21.623Z,86.60
2018-10-03T02:10:22.194Z,86.36
2018-10-03T02:10:22.796Z,86.36
2018-10-03T02:10:23.394Z,86.32
2018-10-03T02:10:23.992Z,86.55
2018-10-03T02:10:24.598Z,86.60
2018-10-03T02:10:25.193Z,86.36
2018-10-03T02:10:25.795Z,86.55
2018-10-03T02:11:19.281Z,88.36
2018-10-03T02:11:19.845Z,88.36
2018-10-03T02:11:20.447Z,88.74
2018-10-03T02:11:21.046Z,88.93
2018-10-03T02:11:21.648Z,88.74
2018-10-03T02:11:22.255Z,88.64
2018-10-03T02:11:22.846Z,88.55
2018-10-03T02:11:23.446Z,88.74
2018-10-03T02:12:16.927Z,88.93
2018-10-03T02:12:17.500Z,88.74
2018-10-03T02:12:18.099Z,88.74
2018-10-03T02:12:18.699Z,88.84
2018-10-03T02:12:19.299Z,88.64
2018-10-03T02:12:19.902Z,88.64
2018-10-03T02:12:20.499Z,88.45
2018-10-03T02:12:21.098Z,88.74
2018-10-03T02:13:15.605Z,91.22
2018-10-03T02:13:16.172Z,91.22
2018-10-03T02:13:16.773Z,91.03
2018-10-03T02:13:17.374Z,91.41
2018-10-03T02:13:17.974Z,91.41
2018-10-03T02:13:18.576Z,91.22
2018-10-03T02:13:19.171Z,91.79
2018-10-03T02:13:19.773Z,91.50
2018-10-03T02:14:13.258Z,90.45
2018-10-03T02:14:13.825Z,90.36
2018-10-03T02:14:14.427Z,90.55
2018-10-03T02:14:15.026Z,90.26
2018-10-03T02:14:15.626Z,90.17
2018-10-03T02:14:16.229Z,90.74
2018-10-03T02:14:16.823Z,90.74
2018-10-03T02:14:17.424Z,90.74
2018-10-03T02:15:11.928Z,89.79
2018-10-03T02:15:12.501Z,89.69
2018-10-03T02:15:13.101Z,89.89
2018-10-03T02:15:13.700Z,89.69
2018-10-03T02:15:14.301Z,89.60
2018-10-03T02:15:14.903Z,89.69
2018-10-03T02:15:15.502Z,89.69
2018-10-03T02:15:16.100Z,89.60
2018-10-03T02:16:10.605Z,92.08
2018-10-03T02:16:11.177Z,92.17
2018-10-03T02:16:11.778Z,92.08
2018-10-03T02:16:12.376Z,91.98
2018-10-03T02:16:12.977Z,91.88
2018-10-03T02:16:13.579Z,92.08
2018-10-03T02:16:14.177Z,92.08
2018-10-03T02:16:14.778Z,91.88
2018-10-03T02:17:08.263Z,92.17
2018-10-03T02:17:08.831Z,92.17
2018-10-03T02:17:09.429Z,92.17
2018-10-03T02:17:10.029Z,91.98
2018-10-03T02:17:10.631Z,92.08
2018-10-03T02:17:11.231Z,92.08
2018-10-03T02:17:11.830Z,92.08
2018-10-03T02:17:12.432Z,92.17
2018-10-03T02:18:14.407Z,92.27
2018-10-03T02:18:14.981Z,92.08
2018-10-03T02:18:15.580Z,91.79
2018-10-03T02:18:16.178Z,91.98
2018-10-03T02:18:16.780Z,92.08
2018-10-03T02:18:17.383Z,92.46
2018-10-03T02:18:17.978Z,91.98
2018-10-03T02:18:18.579Z,91.98
2018-10-03T02:18:19.181Z,91.88
2018-10-03T02:18:19.778Z,92.55
2018-10-03T02:18:20.379Z,91.98
2018-10-03T02:18:20.977Z,92.17
2018-10-03T02:21:01.177Z,92.74
2018-10-03T02:21:01.681Z,92.27
2018-10-03T02:21:02.281Z,91.69
2018-10-03T02:22:25.288Z,91.50
2018-10-03T02:22:25.860Z,91.60
2018-10-03T02:22:26.460Z,91.60
2018-10-03T02:22:27.060Z,91.69
2018-10-03T02:22:27.662Z,91.79
2018-10-03T02:22:28.265Z,91.22
2018-10-03T02:22:28.861Z,91.79
2018-10-03T02:22:29.460Z,91.60
2018-10-03T02:23:22.949Z,90.64
2018-10-03T02:23:23.517Z,90.26
2018-10-03T02:23:24.115Z,90.74
2018-10-03T02:23:24.713Z,90.55
2018-10-03T02:23:25.313Z,90.74
2018-10-03T02:23:25.916Z,91.03
2018-10-03T02:23:26.513Z,91.03
2018-10-03T02:23:27.116Z,90.45
2018-10-03T02:24:21.628Z,90.64
2018-10-03T02:24:22.190Z,90.55
2018-10-03T02:24:22.789Z,90.45
2018-10-03T02:24:23.388Z,90.45
2018-10-03T02:24:23.987Z,90.45
2018-10-03T02:24:24.590Z,90.26
2018-10-03T02:24:25.188Z,90.36
2018-10-03T02:24:25.788Z,90.84
2018-10-03T02:25:19.275Z,89.79
2018-10-03T02:25:19.841Z,89.69
2018-10-03T02:25:20.440Z,89.69
2018-10-03T02:25:21.048Z,89.79
2018-10-03T02:25:21.642Z,89.89
2018-10-03T02:25:22.243Z,89.79
2018-10-03T02:25:22.844Z,89.60
2018-10-03T02:25:23.440Z,89.60
2018-10-03T02:26:17.943Z,88.45
2018-10-03T02:26:18.518Z,88.84
2018-10-03T02:26:19.116Z,88.84
2018-10-03T02:26:19.719Z,88.84
2018-10-03T02:26:20.317Z,88.64
2018-10-03T02:26:20.918Z,88.55
2018-10-03T02:26:21.516Z,88.84
2018-10-03T02:26:22.115Z,88.84
2018-10-03T02:27:15.596Z,88.93
2018-10-03T02:27:16.172Z,89.40
2018-10-03T02:27:16.777Z,89.40
2018-10-03T02:27:17.380Z,89.69
2018-10-03T02:27:17.969Z,88.74
2018-10-03T02:27:18.571Z,89.40
2018-10-03T02:27:19.169Z,89.98
2018-10-03T02:27:19.768Z,89.22
2018-10-03T02:28:13.253Z,89.60
2018-10-03T02:28:13.822Z,89.69
2018-10-03T02:28:14.422Z,89.50
2018-10-03T02:28:15.021Z,89.50
2018-10-03T02:28:15.626Z,89.31
2018-10-03T02:28:16.224Z,89.89
2018-10-03T02:28:16.818Z,89.31
2018-10-03T02:28:17.420Z,89.31
2018-10-03T02:29:10.903Z,89.40
2018-10-03T02:29:11.474Z,89.50
2018-10-03T02:29:12.074Z,89.60
2018-10-03T02:29:12.671Z,89.69
2018-10-03T02:29:13.271Z,89.31
2018-10-03T02:29:13.882Z,89.40
2018-10-03T02:29:14.471Z,89.40
2018-10-03T02:29:15.071Z,89.89
2018-10-03T02:30:08.555Z,87.79
2018-10-03T02:30:09.125Z,87.88
2018-10-03T02:30:09.725Z,87.50
2018-10-03T02:30:10.325Z,87.50
2018-10-03T02:30:10.924Z,87.69
2018-10-03T02:30:11.525Z,87.88
2018-10-03T02:30:12.122Z,87.88
2018-10-03T02:30:12.723Z,88.36
2018-10-03T02:31:07.232Z,88.36
2018-10-03T02:31:07.801Z,88.74
2018-10-03T02:31:08.403Z,88.36
2018-10-03T02:31:09.001Z,88.45
2018-10-03T02:31:09.604Z,88.36
2018-10-03T02:31:10.201Z,88.64
2018-10-03T02:31:10.799Z,88.36
2018-10-03T02:31:11.399Z,88.64
2018-10-03T02:32:04.882Z,90.17
2018-10-03T02:32:05.453Z,90.26
2018-10-03T02:32:06.052Z,89.98
2018-10-03T02:32:06.656Z,90.17
2018-10-03T02:32:07.251Z,90.17
2018-10-03T02:32:07.853Z,90.26
2018-10-03T02:32:08.452Z,90.26
2018-10-03T02:32:09.051Z,90.26
2018-10-03T02:33:03.561Z,88.93
2018-10-03T02:33:04.126Z,89.03
2018-10-03T02:33:04.726Z,88.64
2018-10-03T02:33:05.326Z,89.60
2018-10-03T02:33:05.927Z,89.50
2018-10-03T02:33:06.527Z,88.74
2018-10-03T02:33:07.127Z,88.84
2018-10-03T02:33:07.725Z,88.84
2018-10-03T02:34:01.217Z,89.69
2018-10-03T02:34:01.779Z,89.50
2018-10-03T02:34:02.384Z,89.69
2018-10-03T02:34:03.000Z,89.60
2018-10-03T02:34:03.582Z,89.69
2018-10-03T02:34:04.181Z,89.89
2018-10-03T02:34:04.780Z,89.60
2018-10-03T02:34:05.377Z,89.22
2018-10-03T02:34:58.868Z,89.89
2018-10-03T02:34:59.433Z,89.89
2018-10-03T02:35:00.029Z,89.69
2018-10-03T02:35:00.629Z,89.69
2018-10-03T02:35:01.229Z,89.60
2018-10-03T02:35:01.833Z,89.50
2018-10-03T02:35:02.432Z,89.50
2018-10-03T02:35:03.029Z,89.60
2018-10-03T02:35:56.514Z,88.84
2018-10-03T02:35:57.083Z,88.84
2018-10-03T02:35:57.683Z,88.74
2018-10-03T02:35:58.287Z,88.84
2018-10-03T02:35:58.883Z,88.64
2018-10-03T02:35:59.483Z,88.36
2018-10-03T02:36:00.081Z,88.74
2018-10-03T02:36:00.684Z,88.74
2018-10-03T02:36:54.168Z,87.31
2018-10-03T02:36:54.734Z,87.40
2018-10-03T02:36:55.337Z,87.31
2018-10-03T02:36:55.936Z,87.31
2018-10-03T02:36:56.535Z,87.40
2018-10-03T02:36:57.136Z,87.21
2018-10-03T02:36:57.733Z,87.40
2018-10-03T02:36:58.336Z,87.31
2018-10-03T02:37:52.837Z,88.74
2018-10-03T02:37:53.409Z,88.26
2018-10-03T02:37:54.010Z,88.26
2018-10-03T02:37:54.609Z,88.84
2018-10-03T02:37:55.207Z,88.55
2018-10-03T02:37:55.815Z,88.55
2018-10-03T02:37:56.408Z,88.55
2018-10-03T02:37:57.007Z,88.93
2018-10-03T02:38:51.512Z,88.07
2018-10-03T02:38:52.085Z,87.88
2018-10-03T02:38:52.687Z,87.69
2018-10-03T02:38:53.285Z,87.88
2018-10-03T02:38:53.885Z,87.69
2018-10-03T02:38:54.488Z,87.69
2018-10-03T02:38:55.083Z,87.98
2018-10-03T02:38:55.684Z,87.79
2018-10-03T02:39:50.192Z,86.74
2018-10-03T02:39:50.764Z,87.12
2018-10-03T02:39:51.362Z,86.74
2018-10-03T02:39:51.960Z,86.55
2018-10-03T02:39:52.561Z,86.83
2018-10-03T02:39:53.163Z,86.65
2018-10-03T02:39:53.767Z,87.02
2018-10-03T02:39:54.360Z,87.02
2018-10-03T02:40:48.863Z,86.74
2018-10-03T02:40:49.436Z,86.65
2018-10-03T02:40:50.036Z,86.74
2018-10-03T02:40:50.635Z,86.74
2018-10-03T02:40:51.236Z,86.83
2018-10-03T02:40:51.838Z,87.02
2018-10-03T02:40:52.438Z,86.74
2018-10-03T02:40:53.038Z,87.02
2018-10-03T02:41:46.517Z,85.60
2018-10-03T02:41:47.090Z,85.69
2018-10-03T02:41:47.694Z,85.69
2018-10-03T02:41:48.293Z,85.69
2018-10-03T02:41:48.888Z,85.31
2018-10-03T02:41:49.489Z,85.02
2018-10-03T02:41:50.090Z,85.60
2018-10-03T02:41:50.688Z,85.02
2018-10-03T02:42:44.168Z,84.74
2018-10-03T02:42:44.743Z,84.36
2018-10-03T02:42:45.343Z,84.36
2018-10-03T02:42:45.942Z,84.36
2018-10-03T02:42:46.540Z,84.36
2018-10-03T02:42:47.142Z,84.64
2018-10-03T02:42:47.738Z,84.36
2018-10-03T02:42:48.340Z,84.36
2018-10-03T02:43:41.819Z,84.36
2018-10-03T02:43:42.393Z,84.36
2018-10-03T02:43:42.991Z,84.64
2018-10-03T02:43:43.590Z,84.64
2018-10-03T02:43:44.193Z,84.64
2018-10-03T02:43:44.793Z,84.55
2018-10-03T02:43:45.390Z,84.36
2018-10-03T02:43:45.990Z,84.55
2018-10-03T02:44:39.470Z,83.59
2018-10-03T02:44:40.045Z,83.78
2018-10-03T02:44:40.644Z,83.50
2018-10-03T02:44:41.244Z,83.12
2018-10-03T02:44:41.845Z,82.92
2018-10-03T02:44:42.445Z,83.31
2018-10-03T02:44:43.044Z,83.31
2018-10-03T02:44:43.644Z,83.12
2018-10-03T02:45:37.123Z,81.30
2018-10-03T02:45:37.697Z,81.97
2018-10-03T02:45:38.295Z,81.88
2018-10-03T02:45:38.895Z,81.30
2018-10-03T02:45:39.494Z,81.40
2018-10-03T02:45:40.096Z,81.59
2018-10-03T02:45:40.695Z,81.78
2018-10-03T02:45:41.315Z,81.59
2018-10-03T02:46:34.773Z,81.97
2018-10-03T02:46:35.350Z,81.59
2018-10-03T02:46:35.946Z,81.68
2018-10-03T02:46:36.547Z,81.78
2018-10-03T02:46:37.146Z,81.88
2018-10-03T02:46:37.749Z,81.78
2018-10-03T02:46:38.348Z,81.97
2018-10-03T02:46:38.945Z,82.07
2018-10-03T02:47:32.429Z,81.12
2018-10-03T02:47:33.001Z,81.21
2018-10-03T02:47:33.599Z,81.30
2018-10-03T02:47:34.198Z,81.12
2018-10-03T02:47:34.798Z,81.30
2018-10-03T02:47:35.400Z,81.30
2018-10-03T02:47:35.998Z,80.92
2018-10-03T02:47:36.597Z,81.12
2018-10-03T02:48:31.100Z,80.44
2018-10-03T02:48:31.676Z,80.64
2018-10-03T02:48:32.274Z,80.64
2018-10-03T02:48:32.880Z,80.50
2018-10-03T02:48:33.473Z,80.54
2018-10-03T02:48:34.074Z,80.88
2018-10-03T02:48:34.676Z,80.60
2018-10-03T02:48:35.274Z,80.64
2018-10-03T02:49:29.780Z,80.88
2018-10-03T02:49:30.349Z,80.92
2018-10-03T02:49:30.949Z,80.64
2018-10-03T02:49:31.549Z,80.73
2018-10-03T02:49:32.149Z,80.50
2018-10-03T02:49:32.751Z,80.54
2018-10-03T02:49:33.349Z,80.83
2018-10-03T02:49:33.948Z,80.69
2018-10-03T02:50:28.452Z,80.98
2018-10-03T02:50:29.027Z,80.64
2018-10-03T02:50:29.624Z,81.12
2018-10-03T02:50:30.227Z,80.64
2018-10-03T02:50:30.840Z,80.44
2018-10-03T02:50:31.427Z,80.92
2018-10-03T02:50:32.024Z,80.54
2018-10-03T02:50:32.623Z,81.02
2018-10-03T02:51:27.137Z,80.26
2018-10-03T02:51:27.702Z,80.35
2018-10-03T02:51:28.301Z,80.26
2018-10-03T02:51:28.902Z,80.26
2018-10-03T02:51:29.501Z,80.35
2018-10-03T02:51:30.102Z,80.16
2018-10-03T02:51:30.701Z,80.16
2018-10-03T02:51:31.301Z,80.26
2018-10-03T02:52:24.785Z,80.88
2018-10-03T02:52:25.353Z,80.73
2018-10-03T02:52:25.952Z,80.92
2018-10-03T02:52:26.553Z,81.30
2018-10-03T02:52:27.152Z,80.92
2018-10-03T02:52:27.754Z,80.73
2018-10-03T02:52:28.352Z,80.83
2018-10-03T02:52:28.953Z,81.12
2018-10-03T02:53:23.456Z,80.26
2018-10-03T02:53:24.028Z,79.78
2018-10-03T02:53:24.628Z,80.07
2018-10-03T02:53:25.227Z,79.59
2018-10-03T02:53:25.828Z,79.78
2018-10-03T02:53:26.431Z,79.78
2018-10-03T02:53:27.031Z,79.78
2018-10-03T02:53:27.629Z,79.78
2018-10-03T02:54:21.114Z,79.68
2018-10-03T02:54:21.681Z,79.59
2018-10-03T02:54:22.283Z,79.59
2018-10-03T02:54:22.880Z,79.68
2018-10-03T02:54:23.487Z,79.49
2018-10-03T02:54:24.083Z,79.68
2018-10-03T02:54:24.685Z,79.88
2018-10-03T02:54:25.284Z,79.59
2018-10-03T02:55:19.782Z,80.35
2018-10-03T02:55:20.355Z,80.44
2018-10-03T02:55:20.956Z,80.54
2018-10-03T02:55:21.555Z,80.73
2018-10-03T02:55:22.153Z,80.54
2018-10-03T02:55:22.757Z,80.83
2018-10-03T02:55:23.356Z,80.73
2018-10-03T02:55:23.955Z,80.54
2018-10-03T02:56:18.462Z,79.11
2018-10-03T02:56:19.032Z,79.11
2018-10-03T02:56:19.634Z,79.11
2018-10-03T02:56:20.232Z,79.30
2018-10-03T02:56:20.831Z,79.40
2018-10-03T02:56:21.433Z,79.11
2018-10-03T02:56:22.032Z,79.11
2018-10-03T02:56:22.630Z,79.11
2018-10-03T02:57:16.119Z,78.44
2018-10-03T02:57:16.685Z,78.54
2018-10-03T02:57:17.284Z,78.54
2018-10-03T02:57:17.884Z,78.64
2018-10-03T02:57:18.485Z,78.59
2018-10-03T02:57:19.085Z,78.54
2018-10-03T02:57:19.685Z,78.64
2018-10-03T02:57:20.290Z,78.54
2018-10-03T02:58:13.770Z,78.44
2018-10-03T02:58:14.337Z,78.59
2018-10-03T02:58:14.937Z,78.83
2018-10-03T02:58:15.536Z,78.64
2018-10-03T02:58:16.134Z,78.73
2018-10-03T02:58:16.737Z,78.78
2018-10-03T02:58:17.336Z,78.83
2018-10-03T02:58:17.935Z,78.83
2018-10-03T02:59:12.437Z,77.17
2018-10-03T02:59:13.015Z,76.79
2018-10-03T02:59:13.610Z,77.36
2018-10-03T02:59:14.209Z,77.11
2018-10-03T02:59:14.812Z,76.98
2018-10-03T02:59:15.411Z,77.55
2018-10-03T02:59:16.009Z,77.26
2018-10-03T02:59:16.607Z,77.40
2018-10-03T03:00:11.114Z,77.20
2018-10-03T03:00:11.685Z,77.17
2018-10-03T03:00:12.288Z,77.07
2018-10-03T03:00:12.896Z,77.07
2018-10-03T03:00:13.489Z,77.11
2018-10-03T03:00:14.091Z,77.07
2018-10-03T03:00:14.687Z,77.11
2018-10-03T03:00:15.283Z,76.88
2018-10-03T03:01:08.768Z,76.06
2018-10-03T03:01:09.338Z,75.96
2018-10-03T03:01:09.939Z,76.03
2018-10-03T03:01:10.537Z,76.06
2018-10-03T03:01:11.137Z,75.84
2018-10-03T03:01:11.739Z,76.12
2018-10-03T03:01:12.338Z,75.93
2018-10-03T03:01:12.943Z,76.16
2018-10-03T03:02:07.439Z,75.64
2018-10-03T03:02:08.013Z,75.55
2018-10-03T03:02:08.613Z,75.93
2018-10-03T03:02:09.212Z,75.55
2018-10-03T03:03:22.711Z,75.26
2018-10-03T03:03:23.278Z,75.16
2018-10-03T03:03:23.881Z,75.26
2018-10-03T03:03:24.480Z,75.45
2018-10-03T03:03:25.083Z,75.45
2018-10-03T03:03:25.679Z,75.36
2018-10-03T03:03:26.281Z,75.16
2018-10-03T03:03:26.882Z,75.16
2018-10-03T03:04:20.362Z,74.98
2018-10-03T03:04:20.931Z,75.07
2018-10-03T03:04:21.530Z,74.31
2018-10-03T03:04:22.130Z,74.40
2018-10-03T03:04:22.730Z,74.40
2018-10-03T03:04:23.332Z,74.40
2018-10-03T03:04:23.930Z,74.31
2018-10-03T03:04:24.543Z,74.50
2018-10-03T03:05:18.014Z,72.97
2018-10-03T03:05:18.585Z,72.69
2018-10-03T03:05:19.183Z,72.69
2018-10-03T03:05:19.781Z,73.07
2018-10-03T03:05:20.385Z,73.07
2018-10-03T03:05:20.984Z,72.97
2018-10-03T03:05:21.582Z,72.97
2018-10-03T03:05:22.181Z,72.97
2018-10-03T03:06:16.684Z,73.93
2018-10-03T03:06:17.256Z,73.93
2018-10-03T03:06:17.856Z,74.12
2018-10-03T03:06:18.456Z,73.93
2018-10-03T03:06:19.056Z,73.93
2018-10-03T03:06:19.659Z,73.93
2018-10-03T03:06:20.255Z,74.50
2018-10-03T03:06:20.856Z,74.31
2018-10-03T03:07:15.361Z,73.65
2018-10-03T03:07:15.935Z,73.36
2018-10-03T03:07:16.534Z,73.36
2018-10-03T03:07:17.134Z,73.26
2018-10-03T03:07:17.733Z,73.26
2018-10-03T03:07:18.333Z,73.26
2018-10-03T03:07:18.933Z,73.26
2018-10-03T03:07:19.531Z,72.97
2018-10-03T03:08:13.011Z,73.74
2018-10-03T03:08:13.588Z,73.55
2018-10-03T03:08:14.185Z,73.74